Time;durP1;ratioP1;P1;durP2;ratioP2;P2;SDS_P1;SDS_P2;PMS_P1;PMS_P2;Temp;Humidity;BMP_temperature;BMP_pressure;BME280_temperature;BME280_humidity;BME280_pressure;Samples;Min_cycle;Max_cycle;Signal;HPM_P1;HPM_P2
2023/02/04 00:00:59;;;;;;;13.23;4.00;;;3.40;99.90;;;;;;5068691;28;19909;-71
2023/02/04 00:03:24;;;;;;;;;;;3.30;99.90;;;;;;5070834;28;20032;-71
2023/02/04 00:05:50;;;;;;;8.40;2.08;;;3.20;99.90;;;;;;5068927;28;19950;-70
2023/02/04 00:08:15;;;;;;;;;;;3.20;99.90;;;;;;5070742;28;20035;-71
2023/02/04 00:10:41;;;;;;;7.95;2.80;;;3.10;99.90;;;;;;5085789;28;19991;-72
2023/02/04 00:13:07;;;;;;;;;;;3.10;99.90;;;;;;5069275;28;20129;-73
2023/02/04 00:15:32;;;;;;;12.07;3.42;;;3.10;99.90;;;;;;5070140;28;19904;-73
2023/02/04 00:17:58;;;;;;;;;;;3.00;99.90;;;;;;5069335;28;20036;-73
2023/02/04 00:20:24;;;;;;;10.35;3.45;;;3.10;99.90;;;;;;5068643;28;20274;-73
2023/02/04 00:22:50;;;;;;;;;;;3.10;99.90;;;;;;5070320;28;20408;-72
2023/02/04 00:25:16;;;;;;;12.40;3.03;;;3.20;99.90;;;;;;5068955;28;20380;-73
2023/02/04 00:27:42;;;;;;;;;;;3.40;99.90;;;;;;5070518;28;20481;-73
2023/02/04 00:30:08;;;;;;;8.90;2.67;;;3.40;99.90;;;;;;5070209;28;19908;-73
2023/02/04 00:32:34;;;;;;;13.35;3.53;;;3.40;99.90;;;;;;5069738;28;20036;-73
2023/02/04 00:35:03;;;;;;;;;;;3.40;99.90;;;;;;5068952;28;20099;-73
2023/02/04 00:37:30;;;;;;;11.20;2.22;;;3.40;99.90;;;;;;5070116;28;19913;-73
2023/02/04 00:39:56;;;;;;;11.82;2.10;;;3.50;99.90;;;;;;5070104;28;20035;-73
2023/02/04 00:42:21;;;;;;;;;;;3.50;99.90;;;;;;5070208;28;20032;-72
2023/02/04 00:44:47;;;;;;;10.45;1.98;;;3.50;99.90;;;;;;5070008;28;19908;-71
2023/02/04 00:47:12;;;;;;;;;;;3.50;99.90;;;;;;5070419;28;20066;-71
2023/02/04 00:49:38;;;;;;;9.38;1.48;;;3.50;99.90;;;;;;5068319;28;19904;-71
2023/02/04 00:52:04;;;;;;;9.10;2.10;;;3.50;99.90;;;;;;5069478;28;20842;-72
2023/02/04 00:54:29;;;;;;;;;;;3.60;99.90;;;;;;5069142;28;20044;-72
2023/02/04 00:56:55;;;;;;;5.78;0.82;;;3.60;99.90;;;;;;5070014;28;20407;-71
2023/02/04 00:59:21;;;;;;;10.57;1.65;;;3.50;99.90;;;;;;5072244;28;20033;-71
2023/02/04 01:01:46;;;;;;;;;;;3.50;99.90;;;;;;5074046;28;20458;-71
2023/02/04 01:04:13;;;;;;;9.10;1.20;;;3.40;99.90;;;;;;5073429;28;19908;-71
2023/02/04 01:06:39;;;;;;;13.57;1.83;;;3.40;99.90;;;;;;5073573;28;20054;-74
2023/02/04 01:09:05;;;;;;;;;;;3.30;99.90;;;;;;5073904;28;20061;-74
2023/02/04 01:11:31;;;;;;;11.73;1.05;;;3.20;99.90;;;;;;5072041;28;19905;-73
2023/02/04 01:13:56;;;;;;;;;;;3.10;99.90;;;;;;5073734;28;20039;-71
2023/02/04 01:16:22;;;;;;;4.63;0.65;;;3.10;99.90;;;;;;5073074;28;19908;-73
2023/02/04 01:18:47;;;;;;;;;;;3.00;99.90;;;;;;5072473;28;20033;-73
2023/02/04 01:21:13;;;;;;;6.68;1.30;;;3.00;99.90;;;;;;5073285;28;19912;-73
2023/02/04 01:23:39;;;;;;;13.30;1.38;;;2.90;99.90;;;;;;5073216;28;20104;-73
2023/02/04 01:26:04;;;;;;;;;;;2.90;99.90;;;;;;5073693;28;20063;-73
2023/02/04 01:28:30;;;;;;;5.55;1.00;;;2.80;99.90;;;;;;5073241;28;20014;-72
2023/02/04 01:30:56;;;;;;;;;;;2.80;99.90;;;;;;5073365;28;20032;-75
2023/02/04 01:33:22;;;;;;;10.07;2.65;;;2.80;99.90;;;;;;5072977;28;19916;-73
2023/02/04 01:35:47;;;;;;;;;;;2.80;99.90;;;;;;5073402;28;20037;-74
2023/02/04 01:38:13;;;;;;;8.30;1.90;;;2.80;99.90;;;;;;5071563;28;20309;-74
2023/02/04 01:40:39;;;;;;;;;;;2.80;99.90;;;;;;5072126;28;20064;-74
2023/02/04 01:43:05;;;;;;;8.73;1.85;;;2.80;99.90;;;;;;5072686;28;20403;-73
2023/02/04 01:45:34;;;;;;;13.57;2.20;;;2.80;99.90;;;;;;5072976;28;20101;-74
2023/02/04 01:48:01;;;;;;;14.55;2.45;;;2.80;99.90;;;;;;5071464;28;20093;-72
2023/02/04 01:50:26;;;;;;;12.43;1.85;;;2.90;99.90;;;;;;5072691;28;20449;-74
2023/02/04 01:52:52;;;;;;;;;;;2.80;99.90;;;;;;5072970;28;20142;-74
2023/02/04 01:55:20;;;;;;;14.05;2.17;;;2.80;99.90;;;;;;5072785;28;19948;-74
2023/02/04 01:57:47;;;;;;;8.57;1.40;;;2.90;99.90;;;;;;5072465;28;20035;-73
2023/02/04 02:00:21;;;;;;;14.93;1.65;;;2.90;99.90;;;;;;5071154;28;20381;-74
2023/02/04 02:02:51;;;;;;;6.82;1.10;;;2.90;99.90;;;;;;5071299;28;20129;-74
2023/02/04 02:05:21;;;;;;;10.25;1.92;;;2.90;99.90;;;;;;5071264;28;20503;-74
2023/02/04 02:07:51;;;;;;;11.52;1.65;;;3.00;99.90;;;;;;5071709;28;20454;-74
2023/02/04 02:10:17;;;;;;;11.10;2.53;;;3.00;99.90;;;;;;5071912;28;20029;-74
2023/02/04 02:12:44;;;;;;;10.35;1.40;;;3.00;99.90;;;;;;5072290;28;20043;-74
2023/02/04 02:15:11;;;;;;;10.05;1.65;;;3.00;99.90;;;;;;5070603;28;20459;-74
2023/02/04 02:17:38;;;;;;;11.20;1.50;;;3.00;99.90;;;;;;5071024;28;20055;-74
2023/02/04 02:20:07;;;;;;;9.45;1.65;;;3.00;99.90;;;;;;5072339;28;20029;-74
2023/02/04 02:22:39;;;;;;;10.65;1.58;;;3.10;99.90;;;;;;5072169;28;20028;-74
2023/02/04 02:25:12;;;;;;;7.45;1.10;;;3.10;99.90;;;;;;5072040;28;20020;-73
2023/02/04 02:27:39;;;;;;;12.45;1.50;;;3.20;99.90;;;;;;5070495;28;20035;-74
2023/02/04 02:30:06;;;;;;;12.23;1.67;;;3.20;99.90;;;;;;5071889;28;20024;-74
2023/02/04 02:32:32;;;;;;;13.05;1.67;;;3.30;99.90;;;;;;5070403;28;20500;-73
2023/02/04 02:34:58;;;;;;;;;;;3.30;99.90;;;;;;5072242;28;20032;-74
2023/02/04 02:37:24;;;;;;;10.00;1.25;;;3.20;99.90;;;;;;5070581;28;19905;-73
2023/02/04 02:39:49;;;;;;;;;;;3.30;99.90;;;;;;5072182;28;20043;-74
2023/02/04 02:42:17;;;;;;;9.05;1.17;;;3.30;99.90;;;;;;5071432;28;19954;-73
2023/02/04 02:44:45;;;;;;;10.27;1.20;;;3.30;99.90;;;;;;5071712;28;20396;-73
2023/02/04 02:47:17;;;;;;;10.70;1.50;;;3.30;99.90;;;;;;5070184;28;20029;-74
2023/02/04 02:49:43;;;;;;;6.53;1.33;;;3.20;99.90;;;;;;5071581;28;20536;-75
2023/02/04 02:52:12;;;;;;;;;;;3.20;99.90;;;;;;5071824;28;20127;-74
2023/02/04 02:54:39;;;;;;;8.98;1.20;;;3.20;99.90;;;;;;5071503;28;20435;-74
2023/02/04 02:57:14;;;;;;;11.95;1.90;;;3.20;99.90;;;;;;5071450;28;20024;-73
2023/02/04 02:59:41;;;;;;;6.97;1.37;;;3.10;99.90;;;;;;5071486;28;20093;-75
2023/02/04 03:02:08;;;;;;;12.25;1.40;;;3.10;99.90;;;;;;5071424;28;20353;-74
2023/02/04 03:04:39;;;;;;;10.20;1.60;;;3.10;99.90;;;;;;5071394;28;20043;-74
2023/02/04 03:07:05;;;;;;;8.80;1.73;;;3.20;99.90;;;;;;5071336;28;20036;-74
2023/02/04 03:09:32;;;;;;;3.53;0.47;;;3.40;99.90;;;;;;5071168;28;20044;-74
2023/02/04 03:11:58;;;;;;;6.32;0.82;;;3.70;99.90;;;;;;5070912;28;20032;-73
2023/02/04 03:14:24;;;;;;;;;;;3.80;99.90;;;;;;5071452;28;20507;-72
2023/02/04 03:16:51;;;;;;;7.80;0.90;;;4.00;99.90;;;;;;5071254;28;19935;-71
2023/02/04 03:19:17;;;;;;;3.38;0.60;;;4.00;99.90;;;;;;5070794;28;20028;-70
2023/02/04 03:21:44;;;;;;;;;;;4.00;99.90;;;;;;5071335;28;20027;-72
2023/02/04 03:24:10;;;;;;;4.93;0.95;;;4.10;99.90;;;;;;5070990;28;20002;-71
2023/02/04 03:26:36;;;;;;;;;;;4.00;99.90;;;;;;5069956;28;20127;-72
2023/02/04 03:29:02;;;;;;;4.32;1.05;;;4.00;99.90;;;;;;5070794;28;19904;-71
2023/02/04 03:31:27;;;;;;;;;;;4.00;99.90;;;;;;5071168;28;20029;-72
2023/02/04 03:33:53;;;;;;;10.50;1.60;;;4.00;99.90;;;;;;5070727;28;19908;-73
2023/02/04 03:36:18;;;;;;;;;;;4.00;99.90;;;;;;5071012;28;20020;-72
2023/02/04 03:38:44;;;;;;;13.02;1.60;;;3.90;99.90;;;;;;5070600;28;20641;-72
2023/02/04 03:41:10;;;;;;;;;;;3.90;99.90;;;;;;5070978;28;20029;-72
2023/02/04 03:43:35;;;;;;;8.60;2.10;;;3.80;99.90;;;;;;5070658;28;19916;-72
2023/02/04 03:46:01;;;;;;;;;;;3.80;99.90;;;;;;5071092;28;20091;-71
2023/02/04 03:48:27;;;;;;;9.10;1.33;;;3.80;99.90;;;;;;5070640;28;19912;-72
2023/02/04 03:50:52;;;;;;;;;;;3.70;99.90;;;;;;5070721;28;20374;-72
2023/02/04 03:53:18;;;;;;;14.10;1.60;;;3.70;99.90;;;;;;5070497;28;20304;-73
2023/02/04 03:55:43;;;;;;;;;;;3.80;99.90;;;;;;5069495;28;20027;-73
2023/02/04 03:58:09;;;;;;;15.25;2.30;;;3.70;99.90;;;;;;5070454;28;19908;-72
2023/02/04 04:00:34;;;;;;;;;;;3.70;99.90;;;;;;5070686;28;20538;-72
2023/02/04 04:03:00;;;;;;;19.80;1.88;;;3.70;99.90;;;;;;5070442;28;20380;-72
2023/02/04 04:05:27;;;;;;;;;;;3.70;99.90;;;;;;5070479;28;20025;-72
2023/02/04 04:07:52;;;;;;;9.85;2.03;;;3.70;99.90;;;;;;5070346;28;19994;-72
2023/02/04 04:10:18;;;;;;;;;;;3.70;99.90;;;;;;5070835;28;20116;-72
2023/02/04 04:12:44;;;;;;;8.77;1.35;;;3.70;99.90;;;;;;5070144;28;20006;-71
2023/02/04 04:15:09;;;;;;;;;;;3.80;99.90;;;;;;5069353;28;20025;-73
2023/02/04 04:17:35;;;;;;;4.35;0.90;;;3.80;99.90;;;;;;5070212;28;19904;-71
2023/02/04 04:20:00;;;;;;;;;;;3.90;99.90;;;;;;5070605;28;20035;-72
2023/02/04 04:22:26;;;;;;;6.80;1.55;;;3.80;99.90;;;;;;5070095;28;20369;-72
2023/02/04 04:24:52;;;;;;;;;;;3.90;99.90;;;;;;5069257;28;20516;-72
2023/02/04 04:27:17;;;;;;;7.43;1.55;;;3.90;99.90;;;;;;5070158;28;19912;-71
2023/02/04 04:29:43;;;;;;;;;;;3.90;99.90;;;;;;5069068;28;20503;-73
2023/02/04 04:32:09;;;;;;;12.05;1.60;;;3.90;99.90;;;;;;5071925;28;19919;-71
2023/02/04 04:34:34;;;;;;;;;;;3.90;99.90;;;;;;5074359;28;20033;-73
2023/02/04 04:37:00;;;;;;;9.23;0.98;;;3.90;99.90;;;;;;5073806;28;19908;-71
2023/02/04 04:39:26;;;;;;;;;;;3.90;99.90;;;;;;5074606;28;20024;-72
2023/02/04 04:41:51;;;;;;;3.95;0.90;;;3.90;99.90;;;;;;5072598;28;20011;-73
2023/02/04 04:44:17;;;;;;;5.45;0.90;;;4.00;99.90;;;;;;5072762;28;20032;-73
2023/02/04 04:46:43;;;;;;;;;;;4.10;99.90;;;;;;5073376;28;20032;-71
2023/02/04 04:49:08;;;;;;;9.57;1.17;;;4.20;99.90;;;;;;5073789;28;19980;-70
2023/02/04 04:51:34;;;;;;;;;;;4.20;99.90;;;;;;5072711;28;20519;-70
2023/02/04 04:54:00;;;;;;;9.13;0.80;;;4.20;99.90;;;;;;5073616;28;19915;-72
2023/02/04 04:56:28;;;;;;;;;;;4.10;99.90;;;;;;5074338;28;20051;-72
2023/02/04 04:58:54;;;;;;;7.05;1.02;;;3.90;99.90;;;;;;5072375;28;19904;-72
2023/02/04 05:01:21;;;;;;;;;;;4.00;99.90;;;;;;5073937;28;20039;-73
2023/02/04 05:03:50;;;;;;;4.22;0.75;;;4.00;99.90;;;;;;5073505;28;19904;-71
2023/02/04 05:06:15;;;;;;;8.43;1.10;;;4.00;99.90;;;;;;5073454;28;20017;-71
2023/02/04 05:08:41;;;;;;;;;;;4.00;99.90;;;;;;5072777;28;20029;-73
2023/02/04 05:11:06;;;;;;;9.45;1.17;;;4.00;99.90;;;;;;5073385;28;19954;-72
2023/02/04 05:13:32;;;;;;;;;;;3.90;99.90;;;;;;5072382;28;20036;-72
2023/02/04 05:15:58;;;;;;;6.15;0.90;;;3.90;99.90;;;;;;5073493;28;19908;-72
2023/02/04 05:18:23;;;;;;;;;;;3.90;99.90;;;;;;5073405;28;20057;-72
2023/02/04 05:20:49;;;;;;;6.68;1.13;;;3.90;99.90;;;;;;5073318;28;20397;-73
2023/02/04 05:23:16;;;;;;;;;;;3.90;99.90;;;;;;5072519;28;20020;-73
2023/02/04 05:25:41;;;;;;;20.33;6.40;;;3.80;99.90;;;;;;5073243;28;19904;-72
2023/02/04 05:28:07;;;;;;;65.97;27.88;;;3.80;99.90;;;;;;5071961;28;20266;-72
2023/02/04 05:30:33;;;;;;;;;;;3.80;99.90;;;;;;5073356;28;20025;-72
2023/02/04 05:32:58;;;;;;;33.08;15.38;;;3.80;99.90;;;;;;5071332;28;19916;-73
2023/02/04 05:35:24;;;;;;;;;;;3.80;99.90;;;;;;5089088;28;20016;-74
2023/02/04 05:37:49;;;;;;;11.40;2.85;;;3.70;99.90;;;;;;5073032;28;19919;-72
2023/02/04 05:40:15;;;;;;;;;;;3.80;99.90;;;;;;5073078;28;20108;-72
2023/02/04 05:42:41;;;;;;;9.85;1.70;;;3.80;99.90;;;;;;5072830;28;19951;-72
2023/02/04 05:45:08;;;;;;;;;;;3.80;99.90;;;;;;5073260;28;20100;-72
2023/02/04 05:47:33;;;;;;;4.05;0.80;;;3.80;99.90;;;;;;5072790;28;19909;-71
2023/02/04 05:49:59;;;;;;;;;;;3.80;99.90;;;;;;5072060;28;20394;-71
2023/02/04 05:52:24;;;;;;;7.63;1.00;;;3.90;99.90;;;;;;5072398;28;20380;-72
2023/02/04 05:54:50;;;;;;;;;;;3.90;99.90;;;;;;5073145;28;20047;-70
2023/02/04 05:57:16;;;;;;;7.38;0.77;;;4.00;99.90;;;;;;5071345;28;20404;-71
2023/02/04 05:59:41;;;;;;;;;;;4.00;99.90;;;;;;5072932;28;20024;-72
2023/02/04 06:02:07;;;;;;;127.93;61.85;;;4.00;99.90;;;;;;5072520;28;19904;-71
2023/02/04 06:04:33;;;;;;;;;;;4.00;99.90;;;;;;5072848;28;20075;-70
2023/02/04 06:06:58;;;;;;;10.35;3.83;;;4.20;99.90;;;;;;5072212;28;19966;-70
2023/02/04 06:09:24;;;;;;;;;;;4.10;99.90;;;;;;5072704;28;20033;-70
2023/02/04 06:11:49;;;;;;;6.38;3.13;;;4.20;99.90;;;;;;5072502;28;19919;-71
2023/02/04 06:14:15;;;;;;;;;;;4.20;99.90;;;;;;5071431;28;20032;-72
2023/02/04 06:16:41;;;;;;;7.00;0.90;;;4.10;99.90;;;;;;5072250;28;19904;-73
2023/02/04 06:19:06;;;;;;;;;;;4.10;99.90;;;;;;5071452;28;20032;-72
2023/02/04 06:21:32;;;;;;;5.05;1.85;;;4.10;99.90;;;;;;5087758;28;20367;-72
2023/02/04 06:23:57;;;;;;;;;;;4.00;99.90;;;;;;5071338;28;20028;-72
2023/02/04 06:26:23;;;;;;;4.25;0.68;;;4.00;99.90;;;;;;5071995;28;19908;-72
2023/02/04 06:28:48;;;;;;;;;;;4.00;99.90;;;;;;5071249;28;20405;-72
2023/02/04 06:31:14;;;;;;;3.40;0.32;;;4.00;99.90;;;;;;5070287;28;20419;-72
2023/02/04 06:33:39;;;;;;;;;;;4.00;99.90;;;;;;5071812;28;20549;-70
2023/02/04 06:36:05;;;;;;;9.70;2.33;;;4.00;99.90;;;;;;5071824;28;19916;-73
2023/02/04 06:38:31;;;;;;;;;;;4.10;99.90;;;;;;5072024;28;20373;-73
2023/02/04 06:40:57;;;;;;;9.45;3.15;;;4.10;99.90;;;;;;5071493;28;19908;-73
2023/02/04 06:43:24;;;;;;;;;;;4.10;99.90;;;;;;5072110;28;20116;-73
2023/02/04 06:45:50;;;;;;;2.75;0.63;;;4.10;99.90;;;;;;5071653;28;19982;-70
2023/02/04 06:48:16;;;;;;;3.63;0.50;;;4.10;99.90;;;;;;5070327;28;20032;-70
2023/02/04 06:50:43;;;;;;;;;;;4.10;99.90;;;;;;5072057;28;20017;-69
2023/02/04 06:53:08;;;;;;;3.45;0.30;;;4.10;99.90;;;;;;5071558;28;19912;-71
2023/02/04 06:55:34;;;;;;;;;;;4.20;99.90;;;;;;5071460;28;20055;-71
2023/02/04 06:58:00;;;;;;;1.73;0.45;;;4.20;99.90;;;;;;5071599;28;19912;-70
2023/02/04 07:00:25;;;;;;;;;;;4.30;99.90;;;;;;5071622;28;20029;-71
2023/02/04 07:02:51;;;;;;;5.15;1.10;;;4.50;99.90;;;;;;5070113;28;19915;-73
2023/02/04 07:05:17;;;;;;;3.03;0.70;;;4.60;99.90;;;;;;5070090;28;20032;-72
2023/02/04 07:07:42;;;;;;;;;;;4.70;99.90;;;;;;5070030;28;20032;-72
2023/02/04 07:10:08;;;;;;;2.22;0.30;;;4.60;99.90;;;;;;5072450;28;19934;-73
2023/02/04 07:12:34;;;;;;;;;;;4.60;99.90;;;;;;5077841;28;20130;-72
2023/02/04 07:15:00;;;;;;;1.02;0.30;;;4.60;99.90;;;;;;5080018;28;19999;-74
2023/02/04 07:17:25;;;;;;;;;;;4.50;99.90;;;;;;5078392;28;20032;-73
2023/02/04 07:19:51;;;;;;;1.55;0.30;;;4.50;99.90;;;;;;5079924;28;20365;-72
2023/02/04 07:22:17;;;;;;;1.13;0.30;;;4.50;99.90;;;;;;5078639;28;20103;-71
2023/02/04 07:24:43;;;;;;;;;;;4.50;99.90;;;;;;5080618;28;20391;-73
2023/02/04 07:27:09;;;;;;;3.90;1.50;;;4.50;99.90;;;;;;5079929;28;19908;-73
2023/02/04 07:29:34;;;;;;;;;;;4.60;99.90;;;;;;5077306;28;20032;-72
2023/02/04 07:32:00;;;;;;;4.38;1.73;;;4.60;99.90;;;;;;5080713;28;19923;-74
2023/02/04 07:34:25;;;;;;;;;;;4.50;99.90;;;;;;5079629;28;20035;-73
2023/02/04 07:36:51;;;;;;;1.42;0.55;;;4.50;99.90;;;;;;5078997;28;19911;-72
2023/02/04 07:39:16;;;;;;;;;;;4.60;99.90;;;;;;5078600;28;20104;-72
2023/02/04 07:41:42;;;;;;;1.75;0.77;;;4.70;99.90;;;;;;5078871;28;19908;-72
2023/02/04 07:44:07;;;;;;;;;;;4.70;99.90;;;;;;5087805;28;20498;-73
2023/02/04 07:46:33;;;;;;;5.53;3.00;;;4.60;99.90;;;;;;5090791;28;20299;-72
2023/02/04 07:48:59;;;;;;;;;;;4.60;99.90;;;;;;5090863;28;20404;-73
2023/02/04 07:51:24;;;;;;;4.10;0.70;;;4.70;99.90;;;;;;5090578;28;20356;-73
2023/02/04 07:53:50;;;;;;;;;;;4.70;99.90;;;;;;5089592;28;20036;-71
2023/02/04 07:56:15;;;;;;;4.10;1.65;;;4.70;99.90;;;;;;5090623;28;19912;-72
2023/02/04 07:58:41;;;;;;;;;;;4.70;99.90;;;;;;5090986;28;20496;-73
2023/02/04 08:01:07;;;;;;;2.55;0.88;;;4.70;99.90;;;;;;5089154;28;20421;-73
2023/02/04 08:03:32;;;;;;;;;;;4.80;99.90;;;;;;5091098;28;20377;-73
2023/02/04 08:05:58;;;;;;;20.77;16.00;;;4.80;99.90;;;;;;5089474;28;20364;-73
2023/02/04 08:08:23;;;;;;;;;;;4.90;99.90;;;;;;5088560;28;20028;-71
2023/02/04 08:10:49;;;;;;;2.75;1.38;;;4.90;99.90;;;;;;5089985;28;19908;-72
2023/02/04 08:13:15;;;;;;;;;;;5.00;99.90;;;;;;5090563;28;20032;-73
2023/02/04 08:15:40;;;;;;;3.40;1.50;;;5.10;99.90;;;;;;5089094;28;19961;-74
2023/02/04 08:18:06;;;;;;;;;;;5.10;99.90;;;;;;5089429;28;20028;-71
2023/02/04 08:20:32;;;;;;;2.10;0.77;;;5.20;99.90;;;;;;5090217;28;19908;-73
2023/02/04 08:22:57;;;;;;;;;;;5.30;99.90;;;;;;5089486;28;20024;-71
2023/02/04 08:25:23;;;;;;;0.90;0.43;;;5.30;99.90;;;;;;5090093;28;19908;-71
2023/02/04 08:27:48;;;;;;;;;;;5.30;99.90;;;;;;5090168;28;20028;-73
2023/02/04 08:30:14;;;;;;;1.67;0.50;;;5.20;99.90;;;;;;5090087;28;19915;-73
2023/02/04 08:32:39;;;;;;;;;;;5.20;99.90;;;;;;5089465;28;20047;-73
2023/02/04 08:35:06;;;;;;;1.48;0.35;;;5.20;99.90;;;;;;5089794;28;20044;-72
2023/02/04 08:37:32;;;;;;;0.70;0.28;;;5.10;99.90;;;;;;5089364;28;20028;-73
2023/02/04 08:39:57;;;;;;;;;;;5.10;99.90;;;;;;5090414;28;20032;-72
2023/02/04 08:42:23;;;;;;;1.70;0.50;;;5.10;99.90;;;;;;5088240;28;20395;-71
2023/02/04 08:44:49;;;;;;;;;;;5.10;99.90;;;;;;5089046;28;20483;-71
2023/02/04 08:47:14;;;;;;;1.10;0.32;;;5.10;99.90;;;;;;5088587;28;19908;-72
2023/02/04 08:49:40;;;;;;;;;;;5.10;99.90;;;;;;5090399;28;20024;-71
2023/02/04 08:52:06;;;;;;;0.85;0.30;;;5.10;99.90;;;;;;5088614;28;20440;-71
2023/02/04 08:54:33;;;;;;;1.75;0.30;;;5.10;99.90;;;;;;5090276;28;20017;-73
2023/02/04 08:56:59;;;;;;;0.73;0.40;;;5.00;99.90;;;;;;5089807;28;20054;-71
2023/02/04 08:59:24;;;;;;;;;;;5.00;99.90;;;;;;5089041;28;20024;-73
2023/02/04 09:01:51;;;;;;;3.50;0.52;;;5.00;99.90;;;;;;5089883;28;19908;-71
2023/02/04 09:04:21;;;;;;;4.07;0.63;;;4.90;99.90;;;;;;5088300;28;20020;-72
2023/02/04 09:06:48;;;;;;;3.15;1.48;;;4.90;99.90;;;;;;5089787;28;20021;-73
2023/02/04 09:09:14;;;;;;;4.28;1.45;;;4.70;99.90;;;;;;5088198;28;20369;-71
2023/02/04 09:11:39;;;;;;;;;;;4.70;99.90;;;;;;5089684;28;20028;-73
2023/02/04 09:14:05;;;;;;;2.40;0.82;;;4.90;99.90;;;;;;5089746;28;19912;-72
2023/02/04 09:16:31;;;;;;;2.22;0.70;;;4.90;99.90;;;;;;5089604;28;20023;-72
2023/02/04 09:18:57;;;;;;;;;;;4.70;99.90;;;;;;5093184;28;20110;-73
2023/02/04 09:21:24;;;;;;;1.95;0.70;;;4.80;91.90;;;;;;5093614;28;19904;-74
2023/02/04 09:23:50;;;;;;;3.97;1.48;;;4.70;86.10;;;;;;5093370;28;20020;-73
2023/02/04 09:26:16;;;;;;;;;;;4.80;84.10;;;;;;5093870;28;20032;-71
2023/02/04 09:28:42;;;;;;;2.22;0.73;;;4.60;85.20;;;;;;5092238;28;20421;-72
2023/02/04 09:31:07;;;;;;;2.28;1.10;;;4.60;78.80;;;;;;5093332;28;20032;-71
2023/02/04 09:33:34;;;;;;;;;;;4.70;78.00;;;;;;5092543;28;20588;-71
2023/02/04 09:35:59;;;;;;;5.43;0.60;;;4.60;74.30;;;;;;5091835;28;19904;-74
2023/02/04 09:38:25;;;;;;;;;;;4.60;71.00;;;;;;5091939;28;20399;-72
2023/02/04 09:40:54;;;;;;;2.20;1.00;;;4.80;71.60;;;;;;5092861;28;19911;-71
2023/02/04 09:43:30;;;;;;;3.75;1.10;;;5.10;68.50;;;;;;5093094;28;20067;-72
2023/02/04 09:45:57;;;;;;;1.67;0.70;;;5.50;65.80;;;;;;5091655;28;20066;-72
2023/02/04 09:48:23;;;;;;;5.60;0.70;;;5.10;64.00;;;;;;5092963;28;20024;-72
2023/02/04 09:50:50;;;;;;;1.88;0.50;;;4.90;65.80;;;;;;5091381;28;20039;-72
2023/02/04 09:53:20;;;;;;;4.28;1.98;;;4.60;65.50;;;;;;5092855;28;20064;-71
2023/02/04 09:55:47;;;;;;;2.38;1.00;;;4.50;66.10;;;;;;5092773;28;20035;-74
2023/02/04 09:58:18;;;;;;;1.75;0.50;;;4.40;65.60;;;;;;5092806;28;20035;-74
2023/02/04 10:00:47;;;;;;;2.25;0.88;;;4.20;66.70;;;;;;5091264;28;20020;-76
2023/02/04 10:03:18;;;;;;;1.70;0.55;;;4.10;68.10;;;;;;5092807;28;20036;-74
2023/02/04 10:05:45;;;;;;;1.58;0.70;;;4.00;68.00;;;;;;5091356;28;20039;-74
2023/02/04 10:08:32;;;;;;;1.33;0.50;;;4.00;67.90;;;;;;5091558;28;20043;-74
2023/02/04 10:10:58;;;;;;;4.40;0.57;;;4.10;68.50;;;;;;5092685;28;20024;-75
2023/02/04 10:13:29;;;;;;;;;;;4.10;67.80;;;;;;5092983;28;20043;-73
2023/02/04 10:15:55;;;;;;;2.03;0.43;;;4.10;68.10;;;;;;5091310;28;20280;-74
2023/02/04 10:18:24;;;;;;;;;;;4.10;68.20;;;;;;5091516;28;20504;-72
2023/02/04 10:20:51;;;;;;;2.45;0.45;;;4.20;66.90;;;;;;5092311;28;20283;-72
2023/02/04 10:23:17;;;;;;;1.40;0.40;;;4.30;67.20;;;;;;5092471;28;20582;-73
2023/02/04 10:25:42;;;;;;;;;;;4.30;67.50;;;;;;5092709;28;20115;-72
2023/02/04 10:28:08;;;;;;;2.67;1.00;;;4.30;66.00;;;;;;5090697;28;19908;-72
2023/02/04 10:30:38;;;;;;;;;;;4.30;66.90;;;;;;5091660;28;20028;-73
2023/02/04 10:33:21;;;;;;;0.90;0.50;;;4.40;67.30;;;;;;5090549;28;19946;-72
2023/02/04 10:35:49;;;;;;;10.15;0.80;;;4.50;65.70;;;;;;5090268;28;20486;-73
2023/02/04 10:38:14;;;;;;;1.20;0.50;;;4.40;65.80;;;;;;5090613;28;20028;-73
2023/02/04 10:40:41;;;;;;;;;;;4.50;65.60;;;;;;5092032;28;20032;-72
2023/02/04 10:43:20;;;;;;;2.03;0.55;;;4.50;65.60;;;;;;5091867;28;19911;-73
2023/02/04 10:45:54;;;;;;;1.98;0.68;;;4.50;65.50;;;;;;5091825;28;20051;-72
2023/02/04 10:48:20;;;;;;;1.70;0.57;;;4.40;66.40;;;;;;5093656;28;20024;-73
2023/02/04 10:50:46;;;;;;;;;;;4.40;65.10;;;;;;5092295;28;20024;-72
2023/02/04 10:56:01;;;;;;;2.88;0.95;;;4.40;66.90;;;;;;5092174;28;20062;-73
2023/02/04 10:58:30;;;;;;;4.28;1.63;;;4.50;65.00;;;;;;5091573;28;20060;-74
2023/02/04 11:00:56;;;;;;;3.45;0.43;;;4.50;64.70;;;;;;5091290;28;20020;-71
2023/02/04 11:03:29;;;;;;;1.35;0.57;;;4.50;64.30;;;;;;5089883;28;20082;-72
2023/02/04 11:05:59;;;;;;;2.08;0.60;;;4.50;63.70;;;;;;5089840;28;20027;-72
2023/02/04 11:08:32;;;;;;;1.90;0.65;;;4.40;63.20;;;;;;5090374;28;20088;-72
2023/02/04 11:11:02;;;;;;;3.60;1.13;;;4.50;63.50;;;;;;5089799;28;20401;-72
2023/02/04 11:14:03;;;;;;;2.88;1.02;;;4.40;63.80;;;;;;5090952;28;20020;-71
2023/02/04 11:16:34;;;;;;;2.90;1.20;;;4.40;63.70;;;;;;5090691;28;20032;-72
2023/02/04 11:19:10;;;;;;;2.90;0.93;;;4.30;64.30;;;;;;5089898;28;20028;-71
2023/02/04 11:21:36;;;;;;;;;;;4.40;64.20;;;;;;5090076;28;20430;-72
2023/02/04 11:24:11;;;;;;;1.65;0.60;;;4.40;64.60;;;;;;5090134;28;20360;-72
2023/02/04 11:26:44;;;;;;;2.20;0.60;;;4.30;63.80;;;;;;5091167;28;20036;-73
2023/02/04 11:29:36;;;;;;;3.53;1.00;;;4.40;62.70;;;;;;5090499;28;20468;-72
2023/02/04 11:32:28;;;;;;;2.60;0.88;;;4.20;63.30;;;;;;5090663;28;20032;-72
2023/02/04 11:35:04;;;;;;;4.05;1.17;;;4.10;62.20;;;;;;5042575;28;20405;-73
2023/02/04 11:37:34;;;;;;;3.85;1.38;;;4.00;62.80;;;;;;5088710;28;20128;-72
2023/02/04 11:40:00;;;;;;;1.63;0.63;;;4.00;62.20;;;;;;5090173;28;20085;-72
2023/02/04 11:42:40;;;;;;;1.73;0.70;;;4.00;61.70;;;;;;5089975;28;20023;-71
2023/02/04 11:45:21;;;;;;;2.38;1.08;;;4.10;60.20;;;;;;5090296;28;20089;-73
2023/02/04 11:47:47;;;;;;;7.45;3.25;;;4.00;59.90;;;;;;5089631;28;20520;-73
2023/02/04 11:50:23;;;;;;;;;;;4.00;60.50;;;;;;5090620;28;20054;-73
2023/02/04 11:52:50;;;;;;;1.75;0.73;;;4.00;59.90;;;;;;5089813;28;20404;-73
2023/02/04 11:55:18;;;;;;;6.78;1.60;;;4.10;58.00;;;;;;5089925;28;20082;-73
2023/02/04 11:57:44;;;;;;;6.28;1.90;;;3.90;58.90;;;;;;5088574;28;20032;-72
2023/02/04 12:00:37;;;;;;;4.00;1.50;;;4.00;58.40;;;;;;5088755;28;20059;-72
2023/02/04 12:03:06;;;;;;;5.65;1.50;;;3.90;59.50;;;;;;5086256;28;20411;-72
2023/02/04 12:05:41;;;;;;;4.78;1.40;;;3.90;59.30;;;;;;5089743;28;20542;-72
2023/02/04 12:08:11;;;;;;;4.97;2.00;;;3.80;59.30;;;;;;5089640;28;20019;-73
2023/02/04 12:10:36;;;;;;;3.90;1.15;;;3.80;59.60;;;;;;5089683;28;20107;-72
2023/02/04 12:13:11;;;;;;;;;;;3.70;59.80;;;;;;5088634;28;20110;-71
2023/02/04 12:15:36;;;;;;;7.05;0.90;;;3.70;60.40;;;;;;5089752;28;19908;-72
2023/02/04 12:18:11;;;;;;;;;;;3.70;59.20;;;;;;5090376;28;20050;-71
2023/02/04 12:20:37;;;;;;;2.33;0.85;;;3.50;60.30;;;;;;5090113;28;19961;-71
2023/02/04 12:23:04;;;;;;;3.50;0.75;;;3.30;60.10;;;;;;5089804;28;20020;-72
2023/02/04 12:25:30;;;;;;;3.70;1.10;;;3.40;60.10;;;;;;5089862;28;20111;-72
2023/02/04 12:27:56;;;;;;;;;;;3.50;60.20;;;;;;5089071;28;20278;-71
2023/02/04 12:30:24;;;;;;;4.35;1.08;;;3.40;61.30;;;;;;5089588;28;19919;-71
2023/02/04 12:32:50;;;;;;;3.85;1.23;;;3.30;61.60;;;;;;5088301;28;20063;-73
2023/02/04 12:35:15;;;;;;;;;;;3.40;60.80;;;;;;5090084;28;20052;-72
2023/02/04 12:37:41;;;;;;;3.45;1.00;;;3.40;61.10;;;;;;5089297;28;19908;-73
2023/02/04 12:40:07;;;;;;;;;;;3.40;60.60;;;;;;5088442;28;20039;-72
2023/02/04 12:42:33;;;;;;;3.35;1.20;;;3.40;60.80;;;;;;5087529;28;19904;-73
2023/02/04 12:44:58;;;;;;;;;;;3.10;61.70;;;;;;5088007;28;20047;-72
2023/02/04 12:47:24;;;;;;;5.47;1.15;;;3.20;60.70;;;;;;5089581;28;19915;-72
2023/02/04 12:49:49;;;;;;;;;;;3.10;61.20;;;;;;5088592;28;20032;-73
2023/02/04 12:52:15;;;;;;;9.45;2.25;;;3.00;61.40;;;;;;5089811;28;20392;-73
2023/02/04 12:54:42;;;;;;;;;;;3.10;61.60;;;;;;5094037;28;20035;-73
2023/02/04 12:57:09;;;;;;;3.03;1.20;;;3.00;63.00;;;;;;5093658;28;19954;-73
2023/02/04 12:59:35;;;;;;;4.43;1.80;;;3.10;61.80;;;;;;5093560;28;20031;-73
2023/02/04 13:02:00;;;;;;;;;;;3.30;61.90;;;;;;5093981;28;20028;-72
2023/02/04 13:04:26;;;;;;;5.13;1.85;;;3.50;60.40;;;;;;5091423;28;19908;-72
2023/02/04 13:06:52;;;;;;;;;;;3.50;60.80;;;;;;5093807;28;20028;-73
2023/02/04 13:09:17;;;;;;;35.80;13.25;;;3.60;60.10;;;;;;5093415;28;19955;-72
2023/02/04 13:11:44;;;;;;;;;;;3.60;60.40;;;;;;5092925;28;20103;-73
2023/02/04 13:14:12;;;;;;;4.30;1.87;;;3.70;60.00;;;;;;5092776;28;19935;-72
2023/02/04 13:16:38;;;;;;;13.27;5.30;;;3.70;60.60;;;;;;5092879;28;20031;-71
2023/02/04 13:19:04;;;;;;;;;;;3.70;62.30;;;;;;5092600;28;20032;-72
2023/02/04 13:21:30;;;;;;;2.78;1.15;;;3.50;60.80;;;;;;5091983;28;19912;-73
2023/02/04 13:23:56;;;;;;;;;;;3.40;60.60;;;;;;5092301;28;20096;-73
2023/02/04 13:26:21;;;;;;;10.13;4.05;;;3.30;61.80;;;;;;5091605;28;19908;-73